createdAt,value
2022-09-20T18:20:43.355Z,99743.16
2022-09-20T18:23:10.053Z,99731.84
2022-09-20T18:25:56.591Z,99739.25
2022-09-20T18:28:23.279Z,99742.53
2022-09-20T18:31:00.197Z,99742.13
2022-09-20T18:33:26.837Z,99742.13
2022-09-20T18:35:59.399Z,99742.91
2022-09-20T18:38:26.021Z,99736.94
2022-09-20T18:41:00.902Z,99745.13
2022-09-20T18:43:29.976Z,99743.91
2022-09-20T18:45:57.714Z,99747.16
2022-09-20T18:48:28.108Z,99754.38
2022-09-20T18:51:03.175Z,99749.59
2022-09-20T18:53:32.475Z,99751.63
2022-09-20T18:56:22.955Z,99756.09
2022-09-20T18:58:55.414Z,99760.22
2022-09-20T19:01:28.158Z,99757.75
2022-09-20T19:04:01.837Z,99764.09
2022-09-20T19:06:33.519Z,99767.16
2022-09-20T19:09:06.531Z,99771.06
2022-09-20T19:11:38.607Z,99760.81
2022-09-20T19:14:28.640Z,99773.69
2022-09-20T19:17:00.251Z,99777.44
2022-09-20T19:19:59.333Z,99777.84
2022-09-20T19:22:57.142Z,99767.81
2022-09-20T19:25:39.360Z,99778.06
2022-09-20T19:28:07.533Z,99784.28
2022-09-20T19:30:34.567Z,99782.03
2022-09-20T19:33:02.811Z,99777.81
2022-09-20T19:35:34.780Z,99785.44
2022-09-20T19:39:00.129Z,99783.41
2022-09-20T19:41:49.066Z,99784.91
2022-09-20T19:44:36.162Z,99786.47
2022-09-20T19:47:19.651Z,99783.88
2022-09-20T19:49:56.736Z,99787.97
2022-09-20T19:52:24.173Z,99782.44
2022-09-20T19:54:51.581Z,99780.19
2022-09-20T19:57:33.746Z,99779.00
2022-09-20T20:00:00.605Z,99789.66
2022-09-20T20:02:27.360Z,99794.63
2022-09-20T20:04:54.114Z,99796.66
2022-09-20T20:07:32.143Z,99797.25
2022-09-20T20:10:19.046Z,99804.66
2022-09-20T20:13:03.381Z,99812.88
2022-09-20T20:15:47.341Z,99813.44
2022-09-20T20:18:21.036Z,99809.91
2022-09-20T20:20:52.566Z,99808.72
2022-09-20T20:23:40.573Z,99806.50
2022-09-20T20:26:20.803Z,99810.84
2022-09-20T20:28:47.753Z,99818.81
2022-09-20T20:31:14.797Z,99816.94
2022-09-20T20:33:41.439Z,99815.53
2022-09-20T20:36:08.974Z,99819.63
2022-09-20T20:38:39.362Z,99819.63
2022-09-20T20:41:09.923Z,99831.16
2022-09-20T20:43:39.309Z,99829.97
2022-09-20T20:46:07.904Z,99828.69
2022-09-20T20:48:35.615Z,99832.00
2022-09-20T20:51:04.531Z,99834.41
2022-09-20T20:53:32.928Z,99838.31
2022-09-20T20:56:01.513Z,99841.41
2022-09-20T20:58:34.654Z,99842.72
2022-09-20T21:01:08.722Z,99837.16
2022-09-20T21:03:35.521Z,99840.78
2022-09-20T21:06:04.458Z,99857.22
2022-09-20T21:08:35.859Z,99848.38
2022-09-20T21:11:05.798Z,99850.44
2022-09-20T21:13:32.959Z,99859.31
2022-09-20T21:16:20.715Z,99853.53
2022-09-20T21:18:48.329Z,99857.25
2022-09-20T21:21:14.874Z,99863.59
2022-09-20T21:23:41.501Z,99863.03
2022-09-20T21:26:10.828Z,99875.28
2022-09-20T21:28:40.367Z,99869.81
2022-09-20T21:31:08.577Z,99871.41
2022-09-20T21:33:37.661Z,99873.41
2022-09-20T21:36:05.162Z,99869.13
2022-09-20T21:38:34.566Z,99875.94
2022-09-20T21:41:23.871Z,99879.84
2022-09-20T21:43:55.442Z,99879.72
2022-09-20T21:46:25.329Z,99881.34
2022-09-20T21:48:51.939Z,99881.34
2022-09-20T21:51:20.358Z,99882.47
2022-09-20T21:53:48.315Z,99892.66
2022-09-20T21:56:17.516Z,99885.22
2022-09-20T21:58:45.926Z,99886.63
2022-09-20T22:01:14.890Z,99880.50
2022-09-20T22:03:52.532Z,99888.28
2022-09-20T22:06:24.253Z,99882.06
2022-09-20T22:08:53.161Z,99890.53
2022-09-20T22:11:20.886Z,99882.75
2022-09-20T22:13:49.183Z,99881.75
2022-09-20T22:16:18.966Z,99871.22
2022-09-20T22:18:46.850Z,99884.59
2022-09-20T22:21:21.332Z,99889.56
2022-09-20T22:24:00.809Z,99886.84
2022-09-20T22:26:30.465Z,99883.34
2022-09-20T22:28:57.506Z,99884.13
2022-09-20T22:31:26.438Z,99880.19
2022-09-20T22:33:55.967Z,99879.81
2022-09-20T22:36:30.825Z,99877.13
2022-09-20T22:38:57.546Z,99881.66
2022-09-20T22:41:24.297Z,99879.31
2022-09-20T22:43:50.874Z,99887.59
2022-09-20T22:46:22.929Z,99880.63
2022-09-20T22:48:49.689Z,99889.00
2022-09-20T22:51:24.573Z,99880.78
2022-09-20T22:53:52.701Z,99885.25
2022-09-20T22:56:21.608Z,99881.50
2022-09-20T22:58:49.974Z,99884.59
2022-09-20T23:01:24.489Z,99882.34
2022-09-20T23:04:06.066Z,99885.09
2022-09-20T23:06:54.969Z,99882.47
2022-09-20T23:09:23.971Z,99881.34
2022-09-20T23:11:50.821Z,99875.41
2022-09-20T23:14:19.458Z,99885.66
2022-09-20T23:16:46.892Z,99883.78
2022-09-20T23:19:14.491Z,99885.75
2022-09-20T23:21:42.557Z,99882.88
2022-09-20T23:24:11.112Z,99875.72
2022-09-20T23:26:39.215Z,99887.16
2022-09-20T23:29:08.154Z,99885.66
2022-09-20T23:31:37.089Z,99883.19
2022-09-20T23:34:05.910Z,99871.47
2022-09-20T23:36:34.576Z,99878.03
2022-09-20T23:39:01.143Z,99886.75
2022-09-20T23:41:28.337Z,99887.03
2022-09-20T23:43:55.232Z,99882.31
2022-09-20T23:46:23.143Z,99890.06
2022-09-20T23:48:52.612Z,99876.53
2022-09-20T23:51:22.683Z,99891.91
2022-09-20T23:53:49.849Z,99890.31
2022-09-20T23:56:16.747Z,99895.22
2022-09-20T23:58:44.270Z,99900.56
